London Express — DPLE — position and weather

sailwx.info

Track history (hours):
 
Tides and Currents Weather Stations Pressure Air Temp Water Temp Dewpoint Dewpoint Depression Visibility Wind Speed Wind Dir Waves Ship Positions

London Express

Last reported at 2016-Sep-30 03:00 UTC. Time now 2016-Sep-30 11:51 UTC.
Position N 32°12' W 026°54'.

Length 294 m; beam 32.3 m; draft 13.6 m.

Type: Ship. MMSI: 211262630.

Wind from 040 at 17 knots

Barometer 1022.7 mb
Air temperature 22.2 ° C
Visibility: greater than 5.4 NM
Dewpoint 18.0 ° C
Water temperature 25.0 ° C

Date/timePositionNaut miles runAvg speedWind from/ knotsBaromVisibWave heightAir tempDewpointWater temp
2016-Sep-30 03:00N 32°12' W 026°54'4715.7 040 / 171022.7 5.4 22.218.025.0
2016-Sep-30 00:00N 32°24' W 026°00'15917.6 060 / 201023.010.8 23.018.425.0
2016-Sep-29 15:00N 33°12' W 023°00'5217.2 050 / 181021.9 5.4 1.525.818.025.0
2016-Sep-29 12:00N 33°24' W 022°00'21117.6 060 / 181023.210.8 1.024.016.924.0
2016-Sep-29 00:00N 34°18' W 017°54'15116.8 050 / 191023.5 5.4 21.716.624.0
2016-Sep-28 15:00N 34°48' W 014°54'5518.5 030 / 231021.8 2.2 1.526.816.423.0
2016-Sep-28 12:00N 35°00' W 013°48'5916.6 030 / 221022.610.8 1.024.218.623.0
2016-Sep-28 08:27N 35°12' W 012°38'10317.5
2016-Sep-28 02:32N 35°29' W 010°33'1717.6
2016-Sep-28 01:33N 35°32' W 010°12'3517.5
2016-Sep-27 23:33N 35°37' W 009°29'34412.7
2016-Sep-26 20:33N 36°24' W 002°28'1916.7
2016-Sep-26 19:25N 36°30' W 002°06'19511.6
2016-Sep-26 02:32N 39°27' W 000°19'0 0.0
2016-Sep-26 01:31N 39°27' W 000°19'0 0.0
2016-Sep-26 00:31N 39°27' W 000°19'0 0.0
2016-Sep-25 21:33N 39°27' W 000°19'0 0.0
2016-Sep-25 17:28N 39°27' W 000°19'0 0.0
2016-Sep-25 16:33N 39°27' W 000°19'0 0.0
2016-Sep-25 15:33N 39°27' W 000°19'0 0.0
2016-Sep-25 14:33N 39°27' W 000°19'0 0.0
2016-Sep-25 12:32N 39°27' W 000°19'0 0.0
2016-Sep-25 11:31N 39°27' W 000°19'0 0.0
2016-Sep-25 10:31N 39°27' W 000°19'0 0.0
2016-Sep-25 09:33N 39°27' W 000°19'9 4.7
2016-Sep-25 07:34N 39°28' W 000°07'6119.2
2016-Sep-25 04:24N 39°58' E 001°02'7719.9
2016-Sep-25 00:31N 41°02' E 001°58'18 1.2
2016-Sep-24 09:32N 41°16' E 002°13'10411.4
2016-Sep-24 00:21N 42°23' E 004°01'6914.4
2016-Sep-23 19:33N 43°18' E 004°59'9 4.6
2016-Sep-23 17:32N 43°25' E 004°51'0 0.0
2016-Sep-23 16:31N 43°25' E 004°51'0 0.0
2016-Sep-23 15:13N 43°25' E 004°51'5 0.8
2016-Sep-23 09:33N 43°23' E 004°57'9710.5
2016-Sep-23 00:20N 43°13' E 007°09'1114.8
2016-Sep-22 23:33N 43°20' E 007°22'4515.0
2016-Sep-22 20:33N 43°48' E 008°10'45 5.7
2016-Sep-22 12:31N 44°25' E 008°47'0 0.0
2016-Sep-22 04:31N 44°25' E 008°47'0 0.0
2016-Sep-22 03:33N 44°25' E 008°47'0 0.0
2016-Sep-22 00:32N 44°25' E 008°47'0 0.0
2016-Sep-21 23:32N 44°25' E 008°47'0 0.0
2016-Sep-21 22:33N 44°25' E 008°47'5 1.8
2016-Sep-21 19:33N 44°20' E 008°46'26 8.6
2016-Sep-21 16:33N 44°00' E 009°10'55 7.9
2016-Sep-21 09:31N 43°35' E 010°18'0 0.0
2016-Sep-21 08:31N 43°35' E 010°18'0 0.0
2016-Sep-21 05:33N 43°35' E 010°18'0 0.0
2016-Sep-21 03:29N 43°35' E 010°18'0 0.0
2016-Sep-21 02:31N 43°35' E 010°18'16 1.7
2016-Sep-20 17:33N 43°21' E 010°08'19 6.5
2016-Sep-20 14:33N 43°02' E 010°01'  
Track history (hours):
 
Tides and Currents Weather Stations Pressure Air Temp Water Temp Dewpoint Dewpoint Depression Visibility Wind Speed Wind Dir Waves Ship Positions

London Express

Last reported at 2016-Sep-30 03:00 UTC. Time now 2016-Sep-30 11:51 UTC.
Position N 32°12' W 026°54'.

Length 294 m; beam 32.3 m; draft 13.6 m.

Type: Ship. MMSI: 211262630.

Wind from 040 at 17 knots

Barometer 1022.7 mb
Air temperature 22.2 ° C
Visibility: greater than 5.4 NM
Dewpoint 18.0 ° C
Water temperature 25.0 ° C

Date/timePositionNaut miles runAvg speedWind from/ knotsBaromVisibWave heightAir tempDewpointWater temp
2016-Sep-30 03:00N 32°12' W 026°54'4715.7 040 / 171022.7 5.4 22.218.025.0
2016-Sep-30 00:00N 32°24' W 026°00'15917.6 060 / 201023.010.8 23.018.425.0
2016-Sep-29 15:00N 33°12' W 023°00'5217.2 050 / 181021.9 5.4 1.525.818.025.0
2016-Sep-29 12:00N 33°24' W 022°00'21117.6 060 / 181023.210.8 1.024.016.924.0
2016-Sep-29 00:00N 34°18' W 017°54'15116.8 050 / 191023.5 5.4 21.716.624.0
2016-Sep-28 15:00N 34°48' W 014°54'5518.5 030 / 231021.8 2.2 1.526.816.423.0
2016-Sep-28 12:00N 35°00' W 013°48'5916.6 030 / 221022.610.8 1.024.218.623.0
2016-Sep-28 08:27N 35°12' W 012°38'10317.5
2016-Sep-28 02:32N 35°29' W 010°33'1717.6
2016-Sep-28 01:33N 35°32' W 010°12'3517.5
2016-Sep-27 23:33N 35°37' W 009°29'34412.7
2016-Sep-26 20:33N 36°24' W 002°28'1916.7
2016-Sep-26 19:25N 36°30' W 002°06'19511.6
2016-Sep-26 02:32N 39°27' W 000°19'0 0.0
2016-Sep-26 01:31N 39°27' W 000°19'0 0.0
2016-Sep-26 00:31N 39°27' W 000°19'0 0.0
2016-Sep-25 21:33N 39°27' W 000°19'0 0.0
2016-Sep-25 17:28N 39°27' W 000°19'0 0.0
2016-Sep-25 16:33N 39°27' W 000°19'0 0.0
2016-Sep-25 15:33N 39°27' W 000°19'0 0.0
2016-Sep-25 14:33N 39°27' W 000°19'0 0.0
2016-Sep-25 12:32N 39°27' W 000°19'0 0.0
2016-Sep-25 11:31N 39°27' W 000°19'0 0.0
2016-Sep-25 10:31N 39°27' W 000°19'0 0.0
2016-Sep-25 09:33N 39°27' W 000°19'9 4.7
2016-Sep-25 07:34N 39°28' W 000°07'6119.2
2016-Sep-25 04:24N 39°58' E 001°02'7719.9
2016-Sep-25 00:31N 41°02' E 001°58'18 1.2
2016-Sep-24 09:32N 41°16' E 002°13'10411.4
2016-Sep-24 00:21N 42°23' E 004°01'6914.4
2016-Sep-23 19:33N 43°18' E 004°59'9 4.6
2016-Sep-23 17:32N 43°25' E 004°51'0 0.0
2016-Sep-23 16:31N 43°25' E 004°51'0 0.0
2016-Sep-23 15:13N 43°25' E 004°51'5 0.8
2016-Sep-23 09:33N 43°23' E 004°57'9710.5
2016-Sep-23 00:20N 43°13' E 007°09'1114.8
2016-Sep-22 23:33N 43°20' E 007°22'4515.0
2016-Sep-22 20:33N 43°48' E 008°10'45 5.7
2016-Sep-22 12:31N 44°25' E 008°47'0 0.0
2016-Sep-22 04:31N 44°25' E 008°47'0 0.0
2016-Sep-22 03:33N 44°25' E 008°47'0 0.0
2016-Sep-22 00:32N 44°25' E 008°47'0 0.0
2016-Sep-21 23:32N 44°25' E 008°47'0 0.0
2016-Sep-21 22:33N 44°25' E 008°47'5 1.8
2016-Sep-21 19:33N 44°20' E 008°46'26 8.6
2016-Sep-21 16:33N 44°00' E 009°10'55 7.9
2016-Sep-21 09:31N 43°35' E 010°18'0 0.0
2016-Sep-21 08:31N 43°35' E 010°18'0 0.0
2016-Sep-21 05:33N 43°35' E 010°18'0 0.0
2016-Sep-21 03:29N 43°35' E 010°18'0 0.0
2016-Sep-21 02:31N 43°35' E 010°18'16 1.7
2016-Sep-20 17:33N 43°21' E 010°08'19 6.5
2016-Sep-20 14:33N 43°02' E 010°01'  

Dump ship's entire track history